PAEI METAR and TAF weather

Enter ICAO airport designator
Station Type Date Time Source
PAEI METAR 2020/01/22 19:56 UTC NOAA

PAEI 221956Z 00000KT 10SM SCT005 BKN025 OVC065 M23/M27 A2974 RMK AO2A SLP092 T12301266 $


Station Type Date Time Source
PAEI Decoded METAR 2020/01/22 19:56 UTC NOAA

Fairbanks, Eielson Air Force Base, AK, United States (PAEI) 64-39N 147-06W 167M
Jan 22, 2020 - 02:56 PM EST / 2020.01.22 1956 UTC
Wind: Calm:0
Visibility: 10 mile(s):0
Sky conditions: overcast
Temperature: -9.4 F (-23.0 C)
Dew Point: -15.9 F (-26.6 C)
Relative Humidity: 72%
Pressure (altimeter): 29.74 in. Hg (1007 hPa)
ob: PAEI 221956Z 00000KT 10SM SCT005 BKN025 OVC065 M23/M27 A2974 RMK AO2A SLP092 T12301266
cycle: 20

Station Type Date Time Source
PAEI TAF 2020/01/22 14:10 UTC NOAA

TAF PAEI 221402Z 2214/2320 VRB03KT 8000 -SN SCT010 BKN040 OVC065 620406 QNH2960INS
BECMG 2214/2215 VRB03KT 6000 -SN SCT010 OVC050 620505 QNH2965INS
TEMPO 2215/2222 4800 -SN BKN010 620109
BECMG 2221/2222 VRB03KT 8000 -SHSN SCT015 OVC030 610307 QNH2969INS
BECMG 2302/2303 VRB03KT 9999 VCSH SCT015 OVC030 610305 QNH2979INS TXM20/2220Z TNM28/2306Z

Example: see airport list